createdAt,value
2022-11-30T00:02:23.825Z,100751.94
2022-11-30T00:07:26.788Z,100753.06
2022-11-30T00:12:29.732Z,100768.13
2022-11-30T00:17:32.610Z,100767.63
2022-11-30T00:22:35.654Z,100757.41
2022-11-30T00:27:38.577Z,100761.25
2022-11-30T00:32:41.719Z,100756.41
2022-11-30T00:37:44.860Z,100749.88
2022-11-30T00:42:47.747Z,100757.09
2022-11-30T00:47:50.449Z,100740.72
2022-11-30T00:52:53.235Z,100756.81
2022-11-30T00:57:56.110Z,100750.94
2022-11-30T01:03:02.980Z,100753.19
2022-11-30T01:08:08.972Z,100759.75
2022-11-30T01:13:13.229Z,100760.69
2022-11-30T01:18:16.714Z,100750.03
2022-11-30T01:23:19.619Z,100745.53
2022-11-30T01:28:22.492Z,100750.56
2022-11-30T01:33:25.588Z,100743.47
2022-11-30T01:38:37.066Z,100751.13
2022-11-30T01:43:53.002Z,100747.50
2022-11-30T01:49:10.383Z,100742.16
2022-11-30T01:54:17.551Z,100742.16
2022-11-30T01:59:23.147Z,100749.06
2022-11-30T02:04:32.555Z,100748.22
2022-11-30T02:09:44.192Z,100738.03
2022-11-30T02:14:53.576Z,100738.50
2022-11-30T02:20:14.318Z,100740.22
2022-11-30T02:25:49.987Z,100744.44
2022-11-30T02:30:55.122Z,100747.59
2022-11-30T02:35:59.903Z,100740.13
2022-11-30T02:41:03.903Z,100739.38
2022-11-30T02:47:01.070Z,100734.88
2022-11-30T02:52:06.625Z,100738.06
2022-11-30T02:57:10.432Z,100724.59
2022-11-30T03:02:13.896Z,100715.63
2022-11-30T03:07:16.864Z,100707.41
2022-11-30T03:12:19.850Z,100721.22
2022-11-30T03:17:22.817Z,100715.72
2022-11-30T03:22:25.847Z,100717.28
2022-11-30T03:27:28.709Z,100719.34
2022-11-30T03:32:31.676Z,100724.94
2022-11-30T03:37:34.607Z,100727.94
2022-11-30T03:42:37.779Z,100725.00
2022-11-30T03:47:41.187Z,100729.84
2022-11-30T03:52:44.000Z,100730.50
2022-11-30T03:57:47.017Z,100728.63
2022-11-30T04:02:49.973Z,100742.16
2022-11-30T04:07:53.098Z,100727.81
2022-11-30T04:12:56.040Z,100734.44
2022-11-30T04:17:58.984Z,100728.19
2022-11-30T04:23:01.867Z,100727.78
2022-11-30T04:28:04.987Z,100729.47
2022-11-30T04:33:08.140Z,100719.72
2022-11-30T04:38:11.368Z,100731.03
2022-11-30T04:43:14.559Z,100737.88
2022-11-30T04:48:19.525Z,100742.91
2022-11-30T04:53:22.351Z,100738.44
2022-11-30T04:58:25.287Z,100738.44
2022-11-30T05:03:28.232Z,100735.81
2022-11-30T05:08:31.415Z,100741.78
2022-11-30T05:13:34.284Z,100736.34
2022-11-30T05:18:37.411Z,100737.91
2022-11-30T05:23:40.288Z,100732.56
2022-11-30T05:28:43.287Z,100736.84
2022-11-30T05:33:54.072Z,100730.06
2022-11-30T05:38:56.998Z,100736.84
2022-11-30T05:43:59.812Z,100731.44
2022-11-30T05:49:03.659Z,100730.47
2022-11-30T05:54:06.617Z,100743.47
2022-11-30T05:59:11.383Z,100751.47
2022-11-30T06:04:14.177Z,100750.41
2022-11-30T06:09:16.862Z,100753.97
2022-11-30T06:14:19.799Z,100752.13
2022-11-30T06:19:22.693Z,100751.06
2022-11-30T06:24:25.652Z,100754.41
2022-11-30T06:29:28.568Z,100759.56
2022-11-30T06:34:32.489Z,100764.72
2022-11-30T06:40:04.764Z,100771.44
2022-11-30T06:44:58.503Z,100771.22
2022-11-30T06:50:01.406Z,100775.34
2022-11-30T06:55:05.040Z,100778.56
2022-11-30T07:00:09.444Z,100776.38
2022-11-30T07:05:12.765Z,100779.47
2022-11-30T07:10:19.960Z,100777.34
2022-11-30T07:15:23.475Z,100783.91
2022-11-30T07:20:26.290Z,100785.16
2022-11-30T07:25:47.453Z,100795.03
2022-11-30T07:30:50.492Z,100790.19
2022-11-30T07:35:54.587Z,100790.94
2022-11-30T07:40:59.861Z,100780.31
2022-11-30T07:46:04.251Z,100763.50
2022-11-30T07:51:18.717Z,100776.28
2022-11-30T07:56:22.037Z,100774.47
2022-11-30T08:01:32.799Z,100778.72
2022-11-30T08:06:35.825Z,100772.38
2022-11-30T08:11:38.764Z,100771.69
2022-11-30T08:16:44.163Z,100781.53
2022-11-30T08:21:47.086Z,100775.50
2022-11-30T08:26:52.731Z,100784.03
2022-11-30T08:31:55.612Z,100777.13
2022-11-30T08:36:58.476Z,100772.84
2022-11-30T08:42:02.865Z,100773.25
2022-11-30T08:47:07.371Z,100759.63
2022-11-30T08:57:35.341Z,100750.53
2022-11-30T09:02:38.199Z,100752.34
2022-11-30T09:07:41.546Z,100748.88
2022-11-30T09:12:44.479Z,100744.19
2022-11-30T09:17:47.545Z,100733.44
2022-11-30T09:22:50.456Z,100748.13
2022-11-30T09:27:53.290Z,100742.13
2022-11-30T09:32:56.146Z,100747.72
2022-11-30T09:37:58.893Z,100741.25
2022-11-30T09:43:24.845Z,100743.53
2022-11-30T09:48:32.362Z,100743.63
2022-11-30T09:53:45.912Z,100740.25
2022-11-30T09:59:08.512Z,100748.16
2022-11-30T10:04:29.947Z,100745.00
2022-11-30T10:10:15.886Z,100747.84
2022-11-30T10:15:39.993Z,100740.38
2022-11-30T10:21:30.282Z,100744.31
2022-11-30T10:26:40.172Z,100739.31
2022-11-30T10:31:44.421Z,100737.97
2022-11-30T10:37:17.806Z,100736.34
2022-11-30T10:42:59.561Z,100740.88
2022-11-30T10:48:36.198Z,100724.56
2022-11-30T10:53:39.118Z,100711.41
2022-11-30T10:59:03.845Z,100707.03
2022-11-30T11:04:17.420Z,100708.31
2022-11-30T11:09:47.178Z,100711.53
2022-11-30T11:15:18.116Z,100700.31
2022-11-30T11:20:42.547Z,100695.06
2022-11-30T11:25:53.240Z,100683.56
2022-11-30T11:30:58.396Z,100688.69
2022-11-30T11:36:15.342Z,100683.31
2022-11-30T11:41:33.952Z,100691.56
2022-11-30T11:47:07.144Z,100692.25
2022-11-30T11:52:13.159Z,100685.81
2022-11-30T11:57:21.199Z,100682.31
2022-11-30T12:02:45.363Z,100697.06
2022-11-30T12:08:06.748Z,100698.44
2022-11-30T12:13:19.006Z,100712.19
2022-11-30T12:18:37.571Z,100695.50
2022-11-30T12:23:52.366Z,100701.31
2022-11-30T12:29:05.535Z,100703.81
2022-11-30T12:34:32.355Z,100692.31
2022-11-30T12:39:59.340Z,100682.13
2022-11-30T12:45:20.012Z,100686.53
2022-11-30T12:50:33.667Z,100688.72
2022-11-30T12:56:06.795Z,100679.28
2022-11-30T13:01:48.290Z,100675.78
2022-11-30T13:07:02.873Z,100676.47
2022-11-30T13:12:12.616Z,100671.56
2022-11-30T13:17:20.038Z,100679.09
2022-11-30T13:22:44.080Z,100683.28
2022-11-30T13:28:24.947Z,100673.69
2022-11-30T13:33:34.183Z,100664.72
2022-11-30T13:38:38.244Z,100665.53
2022-11-30T13:43:47.740Z,100678.41
2022-11-30T13:49:18.045Z,100675.56
2022-11-30T13:54:51.145Z,100677.78
2022-11-30T13:59:58.141Z,100671.31
2022-11-30T14:05:16.676Z,100673.75
2022-11-30T14:10:33.955Z,100675.25
2022-11-30T14:15:40.940Z,100675.84
2022-11-30T14:21:13.569Z,100683.44
2022-11-30T14:26:27.603Z,100677.94
2022-11-30T14:32:24.068Z,100677.47
2022-11-30T14:37:37.840Z,100667.69
2022-11-30T14:42:49.921Z,100666.75
2022-11-30T14:48:04.330Z,100673.47
2022-11-30T14:53:33.188Z,100666.44
2022-11-30T14:58:58.512Z,100662.03
2022-11-30T15:04:17.557Z,100657.50
2022-11-30T15:09:25.950Z,100655.72
2022-11-30T15:14:29.017Z,100660.75
2022-11-30T15:19:34.440Z,100666.50
2022-11-30T15:24:37.372Z,100653.34
2022-11-30T15:29:49.657Z,100653.81
2022-11-30T15:35:02.157Z,100654.41
2022-11-30T15:40:08.659Z,100650.81
2022-11-30T15:45:36.359Z,100665.28
2022-11-30T15:50:41.179Z,100654.63
2022-11-30T15:55:51.024Z,100658.69
2022-11-30T16:01:10.114Z,100650.53
2022-11-30T16:06:19.370Z,100662.38
2022-11-30T16:11:22.768Z,100662.22
2022-11-30T16:16:32.413Z,100652.88
2022-11-30T16:21:35.544Z,100651.53
2022-11-30T16:26:53.610Z,100648.31
2022-11-30T16:31:56.536Z,100648.78
2022-11-30T16:36:59.506Z,100648.28
2022-11-30T16:42:02.596Z,100660.78
2022-11-30T16:47:05.822Z,100647.88
2022-11-30T16:52:15.584Z,100654.09
2022-11-30T16:57:18.595Z,100655.28
2022-11-30T17:02:23.617Z,100653.72
2022-11-30T17:07:26.654Z,100647.34
2022-11-30T17:12:29.647Z,100651.13
2022-11-30T17:17:32.429Z,100668.94
2022-11-30T17:22:37.655Z,100673.69
2022-11-30T17:27:40.493Z,100658.34
2022-11-30T17:32:43.944Z,100669.06
2022-11-30T17:37:47.127Z,100673.84
2022-11-30T17:42:50.010Z,100674.28
2022-11-30T17:47:54.147Z,100675.66
2022-11-30T17:52:57.113Z,100674.41
2022-11-30T17:58:00.153Z,100684.41
2022-11-30T18:03:03.889Z,100683.88
2022-11-30T18:08:07.427Z,100686.03
2022-11-30T18:13:10.330Z,100690.63
2022-11-30T18:18:13.184Z,100688.84
2022-11-30T18:23:16.247Z,100695.06
2022-11-30T18:28:19.112Z,100693.38
2022-11-30T18:33:22.058Z,100684.88
2022-11-30T18:38:25.997Z,100693.56
2022-11-30T18:43:30.654Z,100695.47
2022-11-30T18:48:33.875Z,100696.53
2022-11-30T18:53:36.679Z,100699.47
2022-11-30T18:58:41.095Z,100692.97
2022-11-30T19:03:49.050Z,100693.59
2022-11-30T19:08:52.001Z,100690.69
2022-11-30T19:13:57.754Z,100698.31
2022-11-30T19:19:07.908Z,100696.97
2022-11-30T19:24:10.874Z,100703.47
2022-11-30T19:29:13.727Z,100717.75
2022-11-30T19:34:16.608Z,100714.59
2022-11-30T19:39:19.578Z,100705.22
2022-11-30T19:44:22.516Z,100707.00
2022-11-30T19:49:25.318Z,100698.19
2022-11-30T19:54:28.291Z,100710.72
2022-11-30T19:59:31.226Z,100708.69
2022-11-30T20:04:34.510Z,100721.50
2022-11-30T20:09:37.591Z,100720.38
2022-11-30T20:14:40.503Z,100715.63
2022-11-30T20:19:43.365Z,100720.88
2022-11-30T20:24:46.446Z,100725.28
2022-11-30T20:29:51.461Z,100720.16
2022-11-30T20:34:54.409Z,100717.53
2022-11-30T20:39:57.214Z,100717.53
2022-11-30T20:45:00.095Z,100725.50
2022-11-30T20:50:06.684Z,100711.97
2022-11-30T20:55:09.867Z,100710.78
2022-11-30T21:00:14.185Z,100718.22
2022-11-30T21:05:20.730Z,100722.94
2022-11-30T21:10:23.629Z,100729.44
2022-11-30T21:15:26.597Z,100714.97
2022-11-30T21:20:29.529Z,100722.19
2022-11-30T21:25:34.630Z,100725.09
2022-11-30T21:30:39.517Z,100719.31
2022-11-30T21:35:43.520Z,100724.78
2022-11-30T21:40:56.151Z,100726.63
2022-11-30T21:46:02.825Z,100741.63
2022-11-30T21:51:13.549Z,100750.34
2022-11-30T21:56:21.039Z,100753.59
2022-11-30T22:01:44.607Z,100743.84
2022-11-30T22:06:48.085Z,100762.03
2022-11-30T22:11:50.906Z,100752.44
2022-11-30T22:16:54.007Z,100763.03
2022-11-30T22:21:56.840Z,100767.44
2022-11-30T22:26:59.672Z,100765.03
2022-11-30T22:32:02.590Z,100763.34
2022-11-30T22:37:05.458Z,100763.34
2022-11-30T22:42:08.344Z,100758.31
2022-11-30T22:47:13.605Z,100755.03
2022-11-30T22:52:16.504Z,100759.53
2022-11-30T22:57:19.337Z,100746.53
2022-11-30T23:02:22.163Z,100745.78
2022-11-30T23:07:30.403Z,100741.47
2022-11-30T23:12:57.761Z,100744.22
2022-11-30T23:17:57.702Z,100733.06
2022-11-30T23:23:00.601Z,100731.41
2022-11-30T23:28:03.779Z,100729.72
2022-11-30T23:33:06.782Z,100730.56
2022-11-30T23:38:10.976Z,100730.44
2022-11-30T23:43:13.809Z,100719.13
2022-11-30T23:48:16.960Z,100720.06
2022-11-30T23:53:20.325Z,100732.16
2022-11-30T23:58:24.259Z,100727.66
